Time;durP1;ratioP1;P1;durP2;ratioP2;P2;SDS_P1;SDS_P2;PMS_P1;PMS_P2;Temp;Humidity;BMP_temperature;BMP_pressure;BME280_temperature;BME280_humidity;BME280_pressure;Samples;Min_cycle;Max_cycle;Signal;HPM_P1;HPM_P2
2022/08/05 00:00:24;;;;;;;4.17;2.50;;;27.00;1.00;;;;;;5018006;28;20583;-74
2022/08/05 00:02:50;;;;;;;5.10;2.40;;;27.00;1.00;;;;;;5028034;28;20441;-73
2022/08/05 00:05:15;;;;;;;10.03;2.70;;;26.90;1.00;;;;;;5015428;28;20321;-73
2022/08/05 00:07:41;;;;;;;3.30;2.40;;;26.80;1.00;;;;;;5025011;28;20206;-73
2022/08/05 00:10:10;;;;;;;9.47;2.77;;;26.80;1.00;;;;;;5022944;28;20190;-73
2022/08/05 00:12:36;;;;;;;9.70;3.43;;;26.70;1.00;;;;;;5025379;28;20213;-74
2022/08/05 00:15:02;;;;;;;6.00;3.20;;;26.60;1.00;;;;;;5021567;28;20452;-73
2022/08/05 00:17:28;;;;;;;16.80;4.17;;;26.50;1.00;;;;;;5018349;28;20415;-79
2022/08/05 00:20:16;;;;;;;13.17;3.60;;;26.50;1.00;;;;;;5032529;28;20437;-79
2022/08/05 00:22:41;;;;;;;9.93;4.00;;;26.40;1.00;;;;;;5028750;28;20202;-78
2022/08/05 00:25:16;;;;;;;17.03;4.10;;;26.40;1.00;;;;;;5021234;28;20427;-79
2022/08/05 00:28:04;;;;;;;17.33;4.50;;;26.30;1.00;;;;;;5027225;28;20714;-79
2022/08/05 00:30:29;;;;;;;19.40;4.70;;;26.20;1.00;;;;;;5015169;28;20427;-77
2022/08/05 00:32:55;;;;;;;11.20;4.63;;;26.20;1.00;;;;;;5018296;28;20462;-79
2022/08/05 00:35:28;;;;;;;20.50;4.90;;;26.10;1.00;;;;;;5016487;28;20187;-79
2022/08/05 00:37:58;;;;;;;16.53;4.77;;;26.10;1.00;;;;;;5017082;28;20246;-79
2022/08/05 00:41:05;;;;;;;7.83;4.80;;;26.10;1.00;;;;;;5025908;28;20446;-80
2022/08/05 00:43:46;;;;;;;6.03;4.13;;;26.10;1.00;;;;;;5031957;28;20953;-79
2022/08/05 00:46:16;;;;;;;9.70;3.93;;;26.10;1.00;;;;;;5026812;28;20932;-74
2022/08/05 00:48:42;;;;;;;7.70;4.50;;;26.10;1.00;;;;;;5021529;28;20919;-74
2022/08/05 00:51:07;;;;;;;9.97;3.97;;;26.10;1.00;;;;;;5024907;28;20442;-74
2022/08/05 00:53:33;;;;;;;8.93;3.67;;;26.20;1.00;;;;;;5015020;28;20666;-74
2022/08/05 00:55:59;;;;;;;8.53;4.03;;;26.20;1.00;;;;;;5015218;28;20199;-74
2022/08/05 00:58:24;;;;;;;7.87;4.10;;;26.20;1.00;;;;;;5023477;28;20197;-74
2022/08/05 01:00:58;;;;;;;6.77;3.80;;;26.20;1.00;;;;;;5030662;28;20693;-74
2022/08/05 01:03:24;;;;;;;9.50;3.83;;;26.20;1.00;;;;;;5020093;28;20202;-74
2022/08/05 01:05:51;;;;;;;8.07;3.70;;;26.20;1.00;;;;;;5027870;28;20450;-74
2022/08/05 01:08:18;;;;;;;7.33;3.50;;;26.20;1.00;;;;;;5022830;28;20576;-74
2022/08/05 01:10:48;;;;;;;7.07;3.40;;;26.30;1.00;;;;;;5001021;28;20492;-74
2022/08/05 01:13:38;;;;;;;8.83;3.40;;;26.30;1.00;;;;;;5037120;28;20465;-74
2022/08/05 01:16:12;;;;;;;7.47;4.10;;;26.40;1.00;;;;;;5022340;28;20948;-74
2022/08/05 01:18:44;;;;;;;8.13;2.73;;;26.40;1.00;;;;;;5016742;28;20420;-74
2022/08/05 01:21:32;;;;;;;7.10;3.40;;;26.40;1.00;;;;;;5018721;28;20456;-74
2022/08/05 01:24:18;;;;;;;8.47;2.90;;;26.40;1.00;;;;;;5022467;28;20458;-74
2022/08/05 01:26:58;;;;;;;4.83;2.47;;;26.40;1.00;;;;;;5027840;28;20447;-73
2022/08/05 01:29:57;;;;;;;3.97;2.73;;;26.50;1.00;;;;;;5013897;28;20938;-73
2022/08/05 01:32:33;;;;;;;6.17;2.77;;;26.40;1.00;;;;;;5011943;28;20476;-74
2022/08/05 01:35:07;;;;;;;2.47;2.27;;;26.50;1.00;;;;;;5015159;28;20483;-73
2022/08/05 01:37:46;;;;;;;5.83;2.83;;;26.50;1.00;;;;;;5012973;28;20764;-74
2022/08/05 01:40:18;;;;;;;7.13;3.20;;;26.40;1.00;;;;;;5031469;28;20426;-74
2022/08/05 01:42:45;;;;;;;4.50;2.77;;;26.40;1.00;;;;;;4999965;28;20451;-74
2022/08/05 01:45:14;;;;;;;4.53;2.80;;;26.40;1.00;;;;;;5015287;28;20439;-74
2022/08/05 01:48:11;;;;;;;8.10;3.57;;;26.40;1.00;;;;;;5017322;28;21240;-79
2022/08/05 01:50:41;;;;;;;3.73;2.53;;;26.40;1.00;;;;;;5023641;28;20526;-80
2022/08/05 01:53:24;;;;;;;8.47;2.83;;;26.40;1.00;;;;;;5014433;28;20496;-80
2022/08/05 01:55:57;;;;;;;3.80;2.63;;;26.30;1.00;;;;;;5012811;28;20525;-80
2022/08/05 01:58:30;;;;;;;5.50;2.97;;;26.30;1.00;;;;;;5021239;28;20443;-79
2022/08/05 02:01:22;;;;;;;5.80;3.00;;;26.30;1.00;;;;;;5012754;28;21057;-79
2022/08/05 02:03:52;;;;;;;4.40;2.50;;;26.20;1.00;;;;;;5021855;28;20908;-73
2022/08/05 02:06:17;;;;;;;8.10;2.63;;;26.20;1.00;;;;;;5032871;28;20457;-74
2022/08/05 02:08:46;;;;;;;3.10;2.53;;;26.20;1.00;;;;;;5023250;28;20911;-74
2022/08/05 02:11:16;;;;;;;4.60;2.90;;;26.20;1.00;;;;;;5026506;28;20514;-74
2022/08/05 02:13:57;;;;;;;6.40;2.57;;;26.10;1.00;;;;;;5023095;28;20596;-74
2022/08/05 02:16:31;;;;;;;6.77;2.87;;;26.10;1.00;;;;;;5018358;28;20424;-74
2022/08/05 02:19:01;;;;;;;6.13;2.77;;;26.10;1.00;;;;;;5017803;28;20514;-74
2022/08/05 02:21:35;;;;;;;8.20;3.17;;;26.00;1.00;;;;;;5032428;28;20506;-74
2022/08/05 02:24:11;;;;;;;6.23;2.80;;;26.00;1.00;;;;;;5037630;28;20521;-74
2022/08/05 02:26:50;;;;;;;8.47;3.37;;;26.00;1.00;;;;;;5022818;28;20484;-74
2022/08/05 02:29:26;;;;;;;3.87;2.97;;;25.90;1.00;;;;;;5029275;28;20428;-74
2022/08/05 02:32:08;;;;;;;6.50;2.93;;;25.90;1.00;;;;;;5026758;28;20465;-79
2022/08/05 02:34:36;;;;;;;3.10;2.80;;;25.90;1.00;;;;;;5025109;28;20448;-79
2022/08/05 02:37:08;;;;;;;8.30;3.10;;;25.90;1.00;;;;;;5029015;28;20448;-80
2022/08/05 02:39:53;;;;;;;4.67;3.10;;;25.80;1.00;;;;;;5031792;28;20436;-79
2022/08/05 02:42:30;;;;;;;14.27;4.00;;;25.80;1.00;;;;;;5034922;28;20425;-79
2022/08/05 02:45:11;;;;;;;17.43;4.00;;;25.80;1.00;;;;;;5021168;28;20785;-79
2022/08/05 02:47:39;;;;;;;11.40;3.47;;;25.80;1.00;;;;;;5018399;28;20441;-74
2022/08/05 02:50:06;;;;;;;11.73;3.20;;;25.70;1.00;;;;;;5023831;28;20466;-74
2022/08/05 02:52:33;;;;;;;17.73;3.93;;;25.60;1.00;;;;;;5025633;28;20548;-75
2022/08/05 02:55:01;;;;;;;5.63;3.83;;;25.40;1.00;;;;;;5025115;28;20468;-74
2022/08/05 02:57:27;;;;;;;6.77;3.80;;;25.30;1.00;;;;;;5031009;28;20437;-75
2022/08/05 02:59:54;;;;;;;14.03;3.90;;;25.20;1.00;;;;;;5024637;28;20422;-75
2022/08/05 03:02:27;;;;;;;12.30;4.33;;;25.00;1.00;;;;;;5034023;28;20464;-74
2022/08/05 03:05:00;;;;;;;6.00;4.00;;;24.90;1.00;;;;;;5026675;28;20458;-75
2022/08/05 03:07:26;;;;;;;10.47;5.03;;;24.50;1.00;;;;;;5030868;28;20824;-75
2022/08/05 03:09:53;;;;;;;8.57;4.23;;;24.40;1.00;;;;;;5027911;28;20421;-75
2022/08/05 03:12:35;;;;;;;18.93;4.20;;;24.30;1.00;;;;;;5029013;28;20468;-75
2022/08/05 03:15:02;;;;;;;7.10;4.70;;;24.10;1.00;;;;;;5029584;28;20417;-75
2022/08/05 03:17:28;;;;;;;9.63;4.60;;;24.10;1.00;;;;;;5024487;28;20417;-81
2022/08/05 03:20:10;;;;;;;6.00;4.20;;;24.00;1.00;;;;;;5022049;28;20430;-81
2022/08/05 03:22:46;;;;;;;9.63;4.20;;;23.90;1.00;;;;;;5026162;28;20471;-80
2022/08/05 03:25:19;;;;;;;9.27;4.80;;;23.80;1.00;;;;;;5016244;28;20909;-81
2022/08/05 03:27:45;;;;;;;10.87;4.37;;;23.80;1.00;;;;;;5018469;28;20441;-81
2022/08/05 03:30:23;;;;;;;7.43;4.70;;;23.70;1.00;;;;;;5019674;28;20418;-81
2022/08/05 03:36:23;;;;;;;8.20;5.17;;;23.50;1.00;;;;;;5031171;28;20920;-81
2022/08/05 03:38:48;;;;;;;9.67;5.23;;;23.40;1.00;;;;;;5035191;28;20471;-81
2022/08/05 03:41:16;;;;;;;12.60;6.10;;;23.30;1.00;;;;;;5022393;28;20457;-81
2022/08/05 03:43:46;;;;;;;10.53;5.80;;;23.20;1.00;;;;;;5031403;28;20177;-82
2022/08/05 03:46:35;;;;;;;6.73;4.90;;;23.10;1.00;;;;;;5015931;28;20522;-82
2022/08/05 03:49:01;;;;;;;11.87;4.80;;;23.00;1.00;;;;;;5023727;28;20923;-76
2022/08/05 03:51:35;;;;;;;8.60;5.10;;;22.90;1.00;;;;;;5033375;28;20439;-76
2022/08/05 03:54:34;;;;;;;7.30;5.20;;;22.80;1.00;;;;;;5017322;28;20205;-76
2022/08/05 03:57:06;;;;;;;11.40;5.00;;;22.60;1.00;;;;;;5023900;28;20835;-76
2022/08/05 03:59:41;;;;;;;10.03;5.97;;;22.60;1.00;;;;;;5019845;28;20421;-76
2022/08/05 04:08:46;;;;;;;12.80;5.77;;;22.40;1.00;;;;;;5025955;28;20533;-81
2022/08/05 04:11:17;;;;;;;14.13;6.10;;;22.40;1.00;;;;;;5016015;28;20414;-81
2022/08/05 04:13:44;;;;;;;9.47;6.90;;;22.40;1.00;;;;;;5020993;28;20461;-81
2022/08/05 04:16:12;;;;;;;15.47;7.23;;;22.40;1.00;;;;;;5028832;28;20824;-81
2022/08/05 04:19:10;;;;;;;13.70;7.10;;;22.40;1.00;;;;;;5013023;28;20431;-81
2022/08/05 04:21:41;;;;;;;15.63;8.17;;;22.40;1.00;;;;;;5026728;28;21037;-81
2022/08/05 04:24:22;;;;;;;11.50;7.83;;;22.40;1.00;;;;;;5025908;28;20492;-81
2022/08/05 04:27:04;;;;;;;11.20;7.63;;;22.30;1.00;;;;;;5023412;28;20430;-82
2022/08/05 04:29:34;;;;;;;9.57;7.90;;;22.30;1.00;;;;;;5020982;28;20434;-82
2022/08/05 04:32:05;;;;;;;11.60;9.03;;;22.30;1.00;;;;;;5015896;28;20454;-81
2022/08/05 04:34:46;;;;;;;11.67;9.10;;;22.30;1.00;;;;;;5032480;28;20476;-81
2022/08/05 04:37:34;;;;;;;18.17;9.80;;;22.30;1.00;;;;;;5033378;28;20431;-80
2022/08/05 04:43:28;;;;;;;13.60;10.33;;;22.20;1.00;;;;;;5029183;28;20408;-93
2022/08/05 04:50:10;;;;;;;14.37;11.40;;;22.20;1.00;;;;;;5020727;28;20401;-94
2022/08/05 04:53:16;;;;;;;16.00;11.80;;;22.20;1.00;;;;;;5030841;28;20486;-94
2022/08/05 04:55:42;;;;;;;15.83;11.23;;;22.10;1.00;;;;;;5030827;28;20430;-93
2022/08/05 04:58:12;;;;;;;20.20;12.30;;;22.10;1.00;;;;;;5014919;28;20573;-94
2022/08/05 05:04:00;;;;;;;16.90;11.27;;;22.30;1.00;;;;;;5029389;28;20393;-94
2022/08/05 05:06:34;;;;;;;23.97;12.03;;;22.30;1.00;;;;;;5033977;28;20423;-95
2022/08/05 05:09:16;;;;;;;17.87;11.87;;;22.30;1.00;;;;;;5033905;28;20188;-95
2022/08/05 05:15:05;;;;;;;14.60;11.10;;;22.30;1.00;;;;;;5036132;28;20446;-91
2022/08/05 05:24:22;;;;;;;14.63;11.20;;;22.70;1.00;;;;;;5022527;28;20456;-81
2022/08/05 05:27:28;;;;;;;16.20;11.43;;;22.70;1.00;;;;;;5014235;28;20432;-82
2022/08/05 05:29:53;;;;;;;13.80;10.73;;;22.70;1.00;;;;;;5024495;28;20449;-82
2022/08/05 05:32:22;;;;;;;16.30;10.70;;;22.80;1.00;;;;;;5020284;28;20463;-80
2022/08/05 05:35:10;;;;;;;25.40;10.87;;;23.00;1.00;;;;;;5033696;28;20192;-80
2022/08/05 05:37:54;;;;;;;19.67;10.00;;;23.10;1.00;;;;;;5023350;28;20830;-80
2022/08/05 05:40:34;;;;;;;18.67;10.80;;;23.20;1.00;;;;;;5014822;28;20602;-80
2022/08/05 05:43:10;;;;;;;15.87;10.43;;;23.30;1.00;;;;;;5025353;28;21097;-81
2022/08/05 05:45:40;;;;;;;22.80;9.83;;;23.40;1.00;;;;;;5025640;28;20945;-81
2022/08/05 05:48:10;;;;;;;13.80;9.77;;;23.50;1.00;;;;;;5023889;28;20936;-81
2022/08/05 05:50:52;;;;;;;14.67;9.67;;;23.70;1.00;;;;;;5023387;28;20929;-81
2022/08/05 05:54:10;;;;;;;16.70;9.27;;;23.80;1.00;;;;;;5017803;28;20464;-80
2022/08/05 05:57:04;;;;;;;18.63;9.10;;;23.90;1.00;;;;;;5015247;28;20501;-81
2022/08/05 05:59:58;;;;;;;15.50;9.40;;;23.90;1.00;;;;;;5020281;28;20435;-81
2022/08/05 06:02:28;;;;;;;14.27;8.90;;;24.00;1.00;;;;;;5023963;28;20433;-82
2022/08/05 06:05:06;;;;;;;13.43;9.57;;;24.00;1.00;;;;;;5029965;28;20421;-76
2022/08/05 06:07:48;;;;;;;13.03;9.00;;;24.00;1.00;;;;;;5042655;28;20534;-76
2022/08/05 06:10:22;;;;;;;19.83;9.50;;;24.10;1.00;;;;;;5031286;28;20430;-76
2022/08/05 06:12:48;;;;;;;12.43;9.53;;;24.20;1.00;;;;;;5030133;28;20944;-76
2022/08/05 06:15:28;;;;;;;17.00;9.97;;;24.30;1.00;;;;;;5032951;28;20486;-76
2022/08/05 06:17:58;;;;;;;13.80;8.83;;;24.40;1.00;;;;;;5021611;28;20667;-77
2022/08/05 06:20:24;;;;;;;11.87;9.23;;;24.60;1.00;;;;;;5018004;28;20445;-76
2022/08/05 06:22:50;;;;;;;16.30;8.83;;;24.70;1.00;;;;;;5015565;28;20434;-76
2022/08/05 06:25:22;;;;;;;20.20;9.07;;;24.90;1.00;;;;;;5025025;28;20634;-76
2022/08/05 06:27:48;;;;;;;16.70;9.10;;;25.00;1.00;;;;;;5021948;28;20258;-76
2022/08/05 06:30:14;;;;;;;15.70;8.37;;;25.20;1.00;;;;;;5032575;28;20454;-77
2022/08/05 06:32:52;;;;;;;9.30;7.47;;;25.30;1.00;;;;;;5021925;28;20244;-76
2022/08/05 06:35:18;;;;;;;11.40;7.70;;;25.50;1.00;;;;;;5020983;28;20435;-77
2022/08/05 06:37:44;;;;;;;9.77;7.47;;;25.70;1.00;;;;;;5017732;28;20434;-77
2022/08/05 06:40:11;;;;;;;9.23;7.23;;;25.90;1.00;;;;;;5012711;28;20487;-77
2022/08/05 06:42:37;;;;;;;7.90;6.87;;;26.00;1.00;;;;;;5019656;28;20182;-77
2022/08/05 06:45:04;;;;;;;14.20;8.70;;;26.20;1.00;;;;;;5022784;28;20448;-77
2022/08/05 06:47:30;;;;;;;8.90;7.33;;;26.20;1.00;;;;;;5012594;28;20425;-77
2022/08/05 06:49:55;;;;;;;10.17;7.40;;;26.30;1.00;;;;;;5032733;28;20452;-78
2022/08/05 06:52:21;;;;;;;12.10;8.30;;;26.30;1.00;;;;;;5024453;28;20465;-78
2022/08/05 06:54:46;;;;;;;9.00;7.33;;;26.20;1.00;;;;;;5016746;28;20190;-78
2022/08/05 06:57:13;;;;;;;12.20;7.90;;;26.20;1.00;;;;;;5017201;28;20189;-78
2022/08/05 06:59:40;;;;;;;18.93;8.80;;;26.20;1.00;;;;;;5016617;28;20316;-78
2022/08/05 07:02:10;;;;;;;13.70;8.27;;;26.20;1.00;;;;;;5020695;28;20443;-78
2022/08/05 07:04:36;;;;;;;11.83;8.00;;;26.10;1.00;;;;;;5033481;28;20447;-77
2022/08/05 07:07:02;;;;;;;13.47;8.17;;;26.10;1.00;;;;;;5035233;28;21004;-76
2022/08/05 07:09:27;;;;;;;8.53;7.23;;;26.20;1.00;;;;;;5034351;28;20193;-76
2022/08/05 07:11:54;;;;;;;11.33;7.67;;;26.00;1.00;;;;;;5023918;28;20456;-76
2022/08/05 07:17:04;;;;;;;9.53;7.30;;;26.00;1.00;;;;;;5018556;28;20433;-76
2022/08/05 07:19:30;;;;;;;13.10;7.30;;;25.80;1.00;;;;;;5019439;28;20433;-77
2022/08/05 07:21:56;;;;;;;11.70;7.50;;;25.80;1.00;;;;;;5016421;28;20253;-77
2022/08/05 07:24:22;;;;;;;11.13;6.50;;;25.90;1.00;;;;;;5015421;28;20244;-77
2022/08/05 07:26:52;;;;;;;13.43;6.83;;;26.00;1.00;;;;;;5015503;28;20188;-84
2022/08/05 07:29:18;;;;;;;13.73;7.50;;;26.20;1.00;;;;;;5019412;28;20437;-84
2022/08/05 07:31:44;;;;;;;16.53;7.50;;;26.30;1.00;;;;;;5024110;28;20444;-84
2022/08/05 07:34:09;;;;;;;11.90;6.50;;;26.40;1.00;;;;;;5033718;28;20206;-84
2022/08/05 07:36:35;;;;;;;9.83;7.10;;;26.40;1.00;;;;;;5021665;28;20186;-85
2022/08/05 07:39:02;;;;;;;16.73;6.70;;;26.40;1.00;;;;;;5021169;28;20182;-80
2022/08/05 07:41:28;;;;;;;9.77;6.80;;;26.30;1.00;;;;;;5020197;28;20195;-80
2022/08/05 07:43:55;;;;;;;9.20;6.50;;;26.40;1.00;;;;;;5014047;28;20430;-80
2022/08/05 07:46:21;;;;;;;14.83;6.73;;;26.10;1.00;;;;;;5014142;28;20659;-80
2022/08/05 07:48:46;;;;;;;9.33;6.70;;;26.20;1.00;;;;;;5014057;28;20433;-80
2022/08/05 07:51:14;;;;;;;9.40;5.90;;;26.10;1.00;;;;;;5019675;28;20182;-80
2022/08/05 07:53:41;;;;;;;8.57;6.07;;;26.20;1.00;;;;;;5015158;28;20217;-80
2022/08/05 07:56:06;;;;;;;12.07;6.77;;;26.30;1.00;;;;;;5014916;28;20943;-80
2022/08/05 07:58:32;;;;;;;6.80;5.00;;;26.40;1.00;;;;;;5015180;28;20414;-80
2022/08/05 08:00:58;;;;;;;7.03;4.43;;;26.60;1.00;;;;;;5013761;28;20213;-80
2022/08/05 08:03:23;;;;;;;7.30;5.07;;;26.60;1.00;;;;;;5016810;28;20434;-79
2022/08/05 08:05:52;;;;;;;6.23;4.87;;;26.40;1.00;;;;;;5018257;28;20184;-80
2022/08/05 08:08:18;;;;;;;11.90;4.30;;;26.30;1.00;;;;;;5026804;28;20185;-80
2022/08/05 08:10:44;;;;;;;10.93;4.50;;;26.10;1.00;;;;;;5027460;28;20499;-80
2022/08/05 08:13:10;;;;;;;8.00;4.53;;;26.00;1.00;;;;;;5014684;28;20709;-80
2022/08/05 08:15:37;;;;;;;5.00;4.50;;;26.00;1.00;;;;;;5013269;28;20445;-80
2022/08/05 08:18:02;;;;;;;8.80;4.90;;;26.00;1.00;;;;;;5023608;28;20282;-80
2022/08/05 08:20:28;;;;;;;6.40;3.90;;;25.90;1.00;;;;;;5028715;28;20825;-78
2022/08/05 08:22:56;;;;;;;12.20;3.90;;;26.00;1.00;;;;;;5014329;28;20184;-78
2022/08/05 08:25:22;;;;;;;8.67;4.00;;;26.10;1.00;;;;;;5023186;28;20184;-78
2022/08/05 08:27:48;;;;;;;7.57;3.90;;;26.20;1.00;;;;;;5018781;28;20867;-78
2022/08/05 08:30:14;;;;;;;8.33;3.10;;;26.30;1.00;;;;;;5028362;28;20465;-78
2022/08/05 08:32:40;;;;;;;7.63;4.30;;;26.50;1.00;;;;;;5016797;28;20250;-78
2022/08/05 08:35:07;;;;;;;9.17;3.47;;;26.60;1.00;;;;;;5030423;28;20442;-78
2022/08/05 08:37:34;;;;;;;4.00;3.63;;;26.30;1.00;;;;;;5014724;28;20180;-78
2022/08/05 08:40:00;;;;;;;4.47;3.80;;;26.30;1.00;;;;;;5014460;28;20453;-78
2022/08/05 08:42:27;;;;;;;6.10;4.13;;;26.30;1.00;;;;;;5018369;28;20430;-78
2022/08/05 08:44:54;;;;;;;5.40;3.70;;;26.40;1.00;;;;;;5014120;28;20433;-79
2022/08/05 08:47:24;;;;;;;8.20;3.80;;;26.20;1.00;;;;;;5029318;28;20455;-79
2022/08/05 08:49:52;;;;;;;5.87;4.07;;;26.30;1.00;;;;;;5017871;28;20436;-79
2022/08/05 08:52:23;;;;;;;11.60;4.50;;;26.30;1.00;;;;;;5023251;28;20814;-79
2022/08/05 08:54:51;;;;;;;5.93;3.40;;;26.60;1.00;;;;;;5014070;28;20504;-79
2022/08/05 08:57:17;;;;;;;5.20;3.40;;;26.60;1.00;;;;;;5013990;28;20427;-79
2022/08/05 08:59:43;;;;;;;9.30;3.10;;;26.70;1.00;;;;;;5023748;28;20797;-79
2022/08/05 09:02:10;;;;;;;5.07;3.57;;;26.90;1.00;;;;;;5020078;28;20549;-79
2022/08/05 09:04:36;;;;;;;4.03;3.00;;;27.20;1.00;;;;;;5027333;28;20465;-79
2022/08/05 09:07:07;;;;;;;4.20;3.07;;;27.20;1.00;;;;;;5033227;28;20831;-78
2022/08/05 09:09:33;;;;;;;6.90;2.90;;;27.20;1.00;;;;;;5013773;28;20870;-78
2022/08/05 09:12:00;;;;;;;3.83;3.03;;;27.30;1.00;;;;;;5014099;28;20463;-78
2022/08/05 09:14:26;;;;;;;6.83;3.03;;;27.40;1.00;;;;;;5012242;28;20424;-79
2022/08/05 09:16:51;;;;;;;5.70;2.90;;;27.70;1.00;;;;;;5021916;28;20446;-79
2022/08/05 09:19:17;;;;;;;2.60;2.43;;;27.90;1.00;;;;;;5042157;28;20203;-78
2022/08/05 09:21:43;;;;;;;2.90;2.70;;;27.60;1.00;;;;;;5018299;28;20172;-79
2022/08/05 09:24:11;;;;;;;6.70;2.40;;;27.70;1.00;;;;;;5025191;28;20797;-79
2022/08/05 09:26:38;;;;;;;6.03;2.50;;;28.00;1.00;;;;;;5015122;28;20639;-78
2022/08/05 09:29:07;;;;;;;4.30;3.00;;;27.90;1.00;;;;;;5024558;28;20458;-78
2022/08/05 09:31:34;;;;;;;3.17;2.50;;;27.70;1.00;;;;;;5026523;28;20470;-78
2022/08/05 09:34:02;;;;;;;7.80;2.80;;;27.70;1.00;;;;;;5026023;28;20605;-78
2022/08/05 09:36:37;;;;;;;3.60;2.83;;;27.70;1.00;;;;;;5012021;28;20919;-78
2022/08/05 09:39:08;;;;;;;3.37;2.80;;;27.70;1.00;;;;;;5022414;28;20460;-78
2022/08/05 09:41:52;;;;;;;4.20;2.60;;;27.80;1.00;;;;;;5013215;28;20510;-78
2022/08/05 09:44:32;;;;;;;3.13;2.60;;;27.80;1.00;;;;;;5015744;28;20439;-78
2022/08/05 09:47:14;;;;;;;4.47;2.90;;;27.90;1.00;;;;;;5012963;28;20469;-78
2022/08/05 09:49:41;;;;;;;3.40;2.80;;;27.90;1.00;;;;;;5021484;28;20756;-78
2022/08/05 09:52:26;;;;;;;7.20;3.03;;;28.00;1.00;;;;;;5031791;28;20469;-79
2022/08/05 09:54:59;;;;;;;5.90;3.20;;;27.80;1.00;;;;;;5027639;28;20426;-79
2022/08/05 09:57:34;;;;;;;7.83;3.10;;;27.90;1.00;;;;;;5025506;28;20416;-79
2022/08/05 10:00:13;;;;;;;4.47;3.23;;;27.70;1.00;;;;;;5032789;28;20413;-78
2022/08/05 10:02:44;;;;;;;4.17;3.07;;;27.60;1.00;;;;;;5016279;28;20932;-78
2022/08/05 10:05:17;;;;;;;4.40;3.47;;;27.80;1.00;;;;;;5014584;28;20419;-78
2022/08/05 10:07:52;;;;;;;12.83;3.90;;;27.80;1.00;;;;;;5013490;28;20435;-79
2022/08/05 10:10:25;;;;;;;11.13;3.27;;;28.00;1.00;;;;;;5012991;28;20424;-79
2022/08/05 10:12:55;;;;;;;4.53;3.23;;;27.90;1.00;;;;;;5012915;28;20517;-79
2022/08/05 10:15:23;;;;;;;3.13;2.90;;;27.70;1.00;;;;;;5012975;28;20776;-80
2022/08/05 10:18:06;;;;;;;4.80;3.10;;;27.70;1.00;;;;;;5031056;28;21002;-80
2022/08/05 10:20:33;;;;;;;5.13;3.20;;;27.60;1.00;;;;;;5016794;28;20405;-80
2022/08/05 10:23:00;;;;;;;3.63;2.90;;;27.80;1.00;;;;;;5015120;28;20418;-80
2022/08/05 10:25:26;;;;;;;4.33;3.00;;;28.00;1.00;;;;;;5021691;28;20437;-80
2022/08/05 10:27:52;;;;;;;8.17;3.13;;;27.90;1.00;;;;;;5017998;28;20432;-80
2022/08/05 10:30:19;;;;;;;6.43;3.10;;;28.00;1.00;;;;;;5018646;28;20447;-80
2022/08/05 10:32:46;;;;;;;3.73;3.00;;;28.00;1.00;;;;;;5030540;28;20513;-80
2022/08/05 10:35:13;;;;;;;4.83;3.50;;;28.00;1.00;;;;;;5028193;28;20513;-80
2022/08/05 10:37:39;;;;;;;3.40;3.20;;;28.00;1.00;;;;;;5024682;28;20454;-80
2022/08/05 10:40:14;;;;;;;4.93;3.60;;;28.30;1.00;;;;;;5016479;28;20512;-80
2022/08/05 10:42:45;;;;;;;3.97;2.70;;;28.40;1.00;;;;;;5016457;28;20996;-80
2022/08/05 10:45:12;;;;;;;3.80;2.80;;;28.50;1.00;;;;;;5033714;28;20472;-79
2022/08/05 10:47:43;;;;;;;3.00;2.80;;;28.70;1.00;;;;;;5034410;28;20444;-79
2022/08/05 10:50:13;;;;;;;3.87;3.37;;;28.80;1.00;;;;;;5018792;28;20487;-80
2022/08/05 10:53:06;;;;;;;3.40;3.10;;;28.70;1.00;;;;;;5020680;28;21032;-79
2022/08/05 10:55:32;;;;;;;3.40;3.00;;;28.80;1.00;;;;;;5021452;28;20411;-80
2022/08/05 10:58:08;;;;;;;3.37;3.07;;;29.20;1.00;;;;;;5031306;28;20501;-79
2022/08/05 11:00:34;;;;;;;3.27;2.97;;;29.20;1.00;;;;;;5020091;28;20184;-80
2022/08/05 11:03:06;;;;;;;5.13;3.07;;;29.50;1.00;;;;;;5024215;28;20448;-80
2022/08/05 11:05:36;;;;;;;3.60;3.20;;;29.20;1.00;;;;;;5026335;28;20212;-80
2022/08/05 11:08:07;;;;;;;6.47;3.17;;;29.30;1.00;;;;;;5026120;28;20429;-79
2022/08/05 11:10:36;;;;;;;6.13;3.60;;;29.50;1.00;;;;;;5021666;28;20445;-78
2022/08/05 11:13:03;;;;;;;4.63;2.70;;;29.40;1.00;;;;;;5027892;28;20465;-78
2022/08/05 11:15:42;;;;;;;2.80;2.60;;;29.80;1.00;;;;;;5025801;28;20542;-78
2022/08/05 11:18:13;;;;;;;3.60;2.87;;;29.90;1.00;;;;;;5021816;28;20458;-78
2022/08/05 11:20:45;;;;;;;4.60;2.80;;;29.90;1.00;;;;;;5017508;28;20435;-79
2022/08/05 11:23:29;;;;;;;4.67;2.90;;;29.70;1.00;;;;;;5020758;28;20521;-79
2022/08/05 11:26:20;;;;;;;5.10;3.00;;;29.50;1.00;;;;;;5027700;28;20444;-80
2022/08/05 11:28:50;;;;;;;3.13;2.83;;;29.10;1.00;;;;;;5028168;28;20441;-80
2022/08/05 11:31:16;;;;;;;3.47;2.90;;;29.10;1.00;;;;;;5033887;28;20512;-80
2022/08/05 11:33:47;;;;;;;3.13;2.83;;;29.10;1.00;;;;;;5019211;28;20561;-80
2022/08/05 11:36:19;;;;;;;3.83;3.47;;;29.20;1.00;;;;;;5021879;28;20657;-75
2022/08/05 11:38:46;;;;;;;4.27;3.03;;;29.10;1.00;;;;;;5027928;28;20430;-78
2022/08/05 11:41:14;;;;;;;7.23;2.93;;;29.40;1.00;;;;;;5019663;28;20426;-82
2022/08/05 11:43:43;;;;;;;4.07;3.27;;;29.30;1.00;;;;;;5029159;28;20480;-81
2022/08/05 11:46:09;;;;;;;4.37;3.20;;;29.20;1.00;;;;;;5029405;28;20541;-77
2022/08/05 11:48:40;;;;;;;3.73;3.10;;;29.30;1.00;;;;;;5015345;28;21103;-71
2022/08/05 11:51:06;;;;;;;5.13;2.90;;;29.60;1.00;;;;;;5017883;28;20186;-83
2022/08/05 11:53:32;;;;;;;2.83;2.63;;;29.70;1.00;;;;;;5029189;28;21035;-84
2022/08/05 11:56:00;;;;;;;3.67;3.30;;;29.60;1.00;;;;;;5018841;28;20434;-84
2022/08/05 11:58:29;;;;;;;5.87;3.00;;;30.00;1.00;;;;;;5014978;28;20987;-75
2022/08/05 12:01:12;;;;;;;4.10;2.83;;;30.30;1.00;;;;;;5027121;28;20415;-78
2022/08/05 12:03:53;;;;;;;3.03;2.80;;;30.40;1.00;;;;;;5027228;28;20424;-77
2022/08/05 12:06:21;;;;;;;3.90;3.53;;;30.40;1.00;;;;;;5016011;28;20478;-77
2022/08/05 12:08:50;;;;;;;4.70;3.20;;;30.60;1.00;;;;;;5014938;28;20424;-80
2022/08/05 12:11:20;;;;;;;3.73;2.93;;;30.20;1.00;;;;;;5018150;28;20851;-79
2022/08/05 12:14:03;;;;;;;4.90;3.43;;;30.30;1.00;;;;;;5021156;28;20463;-79
2022/08/05 12:16:31;;;;;;;3.70;2.80;;;30.50;1.00;;;;;;5024943;28;20445;-79
2022/08/05 12:18:57;;;;;;;5.43;3.00;;;30.50;1.00;;;;;;5014398;28;20418;-79
2022/08/05 12:21:23;;;;;;;3.90;2.97;;;30.60;1.00;;;;;;5026674;28;20514;-79
2022/08/05 12:23:58;;;;;;;6.13;3.40;;;30.80;1.00;;;;;;5018954;28;20442;-76
2022/08/05 12:26:37;;;;;;;4.40;3.20;;;30.90;1.00;;;;;;5026690;28;20192;-76
2022/08/05 12:29:13;;;;;;;5.87;3.50;;;30.90;1.00;;;;;;5026853;28;20422;-75
2022/08/05 12:31:47;;;;;;;6.60;3.23;;;30.90;1.00;;;;;;5024948;28;20426;-78
2022/08/05 12:34:19;;;;;;;4.70;3.40;;;31.20;1.00;;;;;;5033242;28;20460;-77
2022/08/05 12:36:46;;;;;;;5.73;3.50;;;31.30;1.00;;;;;;5016001;28;20493;-77
2022/08/05 12:39:12;;;;;;;6.20;3.33;;;31.00;1.00;;;;;;5030553;28;20430;-78
2022/08/05 12:41:41;;;;;;;4.20;3.40;;;31.10;1.00;;;;;;5024825;28;20438;-77
2022/08/05 12:44:09;;;;;;;6.17;3.50;;;31.00;1.00;;;;;;5023920;28;20439;-75
2022/08/05 12:46:37;;;;;;;4.60;3.70;;;30.90;1.00;;;;;;5025247;28;20428;-75
2022/08/05 12:49:13;;;;;;;3.43;3.13;;;30.90;1.00;;;;;;5017385;28;20468;-76
2022/08/05 12:51:57;;;;;;;3.77;3.43;;;31.00;1.00;;;;;;5022466;28;20435;-77
2022/08/05 12:54:47;;;;;;;5.23;4.03;;;31.00;1.00;;;;;;5026899;28;20428;-79
2022/08/05 12:57:40;;;;;;;7.90;4.30;;;31.00;1.00;;;;;;5024366;28;20439;-79
2022/08/05 13:00:19;;;;;;;5.70;4.47;;;31.40;1.00;;;;;;5014410;28;20394;-79
2022/08/05 13:02:45;;;;;;;5.20;4.40;;;31.40;1.00;;;;;;5025148;28;20509;-79
2022/08/05 13:05:16;;;;;;;7.03;4.40;;;31.70;1.00;;;;;;5013016;28;20773;-80
2022/08/05 13:07:50;;;;;;;6.37;4.50;;;31.70;1.00;;;;;;5027483;28;20423;-78
2022/08/05 13:10:16;;;;;;;5.60;5.10;;;31.90;1.00;;;;;;5014200;28;20408;-77
2022/08/05 13:12:46;;;;;;;4.70;4.20;;;31.50;1.00;;;;;;5012789;28;20470;-76
2022/08/05 13:15:18;;;;;;;6.03;5.47;;;31.50;1.00;;;;;;5027954;28;20424;-76
2022/08/05 13:17:54;;;;;;;5.43;4.93;;;31.30;1.00;;;;;;5018993;28;20422;-76
2022/08/05 13:20:20;;;;;;;4.77;4.37;;;31.00;1.00;;;;;;5028572;28;20517;-76
2022/08/05 13:22:50;;;;;;;13.10;4.73;;;31.00;1.00;;;;;;5017999;28;20503;-79
2022/08/05 13:25:22;;;;;;;5.33;4.70;;;31.10;1.00;;;;;;5014725;28;20446;-79
2022/08/05 13:27:58;;;;;;;4.37;3.97;;;31.10;1.00;;;;;;5019339;28;20800;-80
2022/08/05 13:30:40;;;;;;;8.37;4.70;;;31.00;1.00;;;;;;5017515;28;20483;-79
2022/08/05 13:33:10;;;;;;;4.50;3.93;;;30.70;1.00;;;;;;5031838;28;20494;-79
2022/08/05 13:35:40;;;;;;;6.87;4.63;;;30.30;1.00;;;;;;5025058;28;20436;-79
2022/08/05 13:38:28;;;;;;;5.43;4.50;;;30.20;1.00;;;;;;5028742;28;20821;-78
2022/08/05 13:41:04;;;;;;;5.47;4.60;;;30.30;1.00;;;;;;5028241;28;20564;-77
2022/08/05 13:43:34;;;;;;;5.00;4.30;;;30.40;1.00;;;;;;5025528;28;20429;-78
2022/08/05 13:46:00;;;;;;;4.67;4.10;;;30.40;1.00;;;;;;5025728;28;21108;-77
2022/08/05 13:48:28;;;;;;;5.57;4.67;;;30.40;1.00;;;;;;5033042;28;20428;-79
2022/08/05 13:50:54;;;;;;;5.07;4.67;;;30.00;1.00;;;;;;5018252;28;20187;-77